createdAt,value
2022-11-29T00:01:27.218Z,6.00
2022-11-29T00:03:55.852Z,6.00
2022-11-29T00:06:27.644Z,6.10
2022-11-29T00:08:56.878Z,6.10
2022-11-29T00:11:43.896Z,6.00
2022-11-29T00:14:13.666Z,6.00
2022-11-29T00:16:41.701Z,6.00
2022-11-29T00:19:10.555Z,6.00
2022-11-29T00:21:40.137Z,6.00
2022-11-29T00:24:10.039Z,6.00
2022-11-29T00:26:38.080Z,6.10
2022-11-29T00:29:06.461Z,6.10
2022-11-29T00:31:35.107Z,6.10
2022-11-29T00:34:04.973Z,6.10
2022-11-29T00:36:32.840Z,6.10
2022-11-29T00:39:02.585Z,6.10
2022-11-29T00:41:30.509Z,6.10
2022-11-29T00:43:58.575Z,6.10
2022-11-29T00:46:26.772Z,6.10
2022-11-29T00:48:54.737Z,6.10
2022-11-29T00:51:22.663Z,6.10
2022-11-29T00:53:50.626Z,6.10
2022-11-29T00:56:19.922Z,6.10
2022-11-29T00:58:49.222Z,6.10
2022-11-29T01:01:17.787Z,6.10
2022-11-29T01:03:45.829Z,6.10
2022-11-29T01:06:15.522Z,6.10
2022-11-29T01:08:47.053Z,6.10
2022-11-29T01:11:18.501Z,6.00
2022-11-29T01:13:48.995Z,6.00
2022-11-29T01:16:17.804Z,6.10
2022-11-29T01:18:46.466Z,6.10
2022-11-29T01:21:16.107Z,6.10
2022-11-29T01:23:45.089Z,6.10
2022-11-29T01:26:15.118Z,6.10
2022-11-29T01:28:43.625Z,6.10
2022-11-29T01:31:16.907Z,6.10
2022-11-29T01:33:44.972Z,6.10
2022-11-29T01:36:14.476Z,6.10
2022-11-29T01:38:43.531Z,6.10
2022-11-29T01:41:14.663Z,6.10
2022-11-29T01:43:57.343Z,6.10
2022-11-29T01:46:30.893Z,6.20
2022-11-29T01:49:03.140Z,6.10
2022-11-29T01:51:32.174Z,6.10
2022-11-29T01:54:00.167Z,6.10
2022-11-29T01:56:30.021Z,6.10
2022-11-29T01:58:58.174Z,6.10
2022-11-29T02:01:28.532Z,6.10
2022-11-29T02:03:56.754Z,6.00
2022-11-29T02:06:25.322Z,6.00
2022-11-29T02:08:53.243Z,6.10
2022-11-29T02:11:49.717Z,6.00
2022-11-29T02:14:33.474Z,6.00
2022-11-29T02:17:11.494Z,6.00
2022-11-29T02:20:05.655Z,6.00
2022-11-29T02:22:39.299Z,6.10
2022-11-29T02:25:37.499Z,6.10
2022-11-29T02:28:43.252Z,6.10
2022-11-29T02:31:44.655Z,6.00
2022-11-29T02:34:30.532Z,6.10
2022-11-29T02:37:18.749Z,6.10
2022-11-29T02:39:58.814Z,6.10
2022-11-29T02:42:56.593Z,6.10
2022-11-29T02:45:43.866Z,6.10
2022-11-29T02:48:29.068Z,6.10
2022-11-29T02:51:05.867Z,6.10
2022-11-29T02:53:39.253Z,6.10
2022-11-29T02:56:14.613Z,6.10
2022-11-29T02:58:51.245Z,6.10
2022-11-29T03:01:25.438Z,6.00
2022-11-29T03:04:01.054Z,6.00
2022-11-29T03:06:39.916Z,6.00
2022-11-29T03:09:14.851Z,6.10
2022-11-29T03:11:49.476Z,6.10
2022-11-29T03:14:25.128Z,6.10
2022-11-29T03:17:02.645Z,6.10
2022-11-29T03:19:44.320Z,6.10
2022-11-29T03:22:23.269Z,6.00
2022-11-29T03:24:56.492Z,6.00
2022-11-29T03:27:35.945Z,6.10
2022-11-29T03:30:09.600Z,6.10
2022-11-29T03:32:46.178Z,6.10
2022-11-29T03:35:19.780Z,6.10
2022-11-29T03:37:56.367Z,6.10
2022-11-29T03:40:31.343Z,6.10
2022-11-29T03:43:06.948Z,6.00
2022-11-29T03:45:43.671Z,6.00
2022-11-29T03:48:16.709Z,6.00
2022-11-29T03:50:51.993Z,6.00
2022-11-29T03:53:29.801Z,6.00
2022-11-29T03:56:01.564Z,6.00
2022-11-29T03:58:49.993Z,6.00
2022-11-29T04:01:47.204Z,6.00
2022-11-29T04:04:55.532Z,6.00
2022-11-29T04:07:44.481Z,6.00
2022-11-29T04:10:31.962Z,6.00
2022-11-29T04:13:31.200Z,6.00
2022-11-29T04:16:38.509Z,6.00
2022-11-29T04:19:24.813Z,6.00
2022-11-29T04:22:24.833Z,6.00
2022-11-29T04:25:23.132Z,6.00
2022-11-29T04:28:24.320Z,6.00
2022-11-29T04:31:01.288Z,6.00
2022-11-29T04:33:48.450Z,6.00
2022-11-29T04:36:56.937Z,6.00
2022-11-29T04:39:50.028Z,6.00
2022-11-29T04:42:44.229Z,6.00
2022-11-29T04:45:40.709Z,6.00
2022-11-29T04:48:26.795Z,6.00
2022-11-29T04:51:04.178Z,6.00
2022-11-29T04:53:43.223Z,6.00
2022-11-29T04:56:16.252Z,6.00
2022-11-29T04:58:52.374Z,6.00
2022-11-29T05:01:28.967Z,6.00
2022-11-29T05:04:03.818Z,5.90
2022-11-29T05:06:43.189Z,6.00
2022-11-29T05:09:20.145Z,6.00
2022-11-29T05:12:00.588Z,5.90
2022-11-29T05:14:38.728Z,5.90
2022-11-29T05:17:26.664Z,6.00
2022-11-29T05:20:04.298Z,6.00
2022-11-29T05:22:40.545Z,6.00
2022-11-29T05:25:32.598Z,6.00
2022-11-29T05:28:10.418Z,6.00
2022-11-29T05:31:05.263Z,6.00
2022-11-29T05:33:56.252Z,6.00
2022-11-29T05:36:38.657Z,6.00
2022-11-29T05:39:24.148Z,6.00
2022-11-29T05:42:10.748Z,6.00
2022-11-29T05:44:43.435Z,6.10
2022-11-29T05:47:16.977Z,6.10
2022-11-29T05:49:59.307Z,6.00
2022-11-29T05:52:37.753Z,6.00
2022-11-29T05:55:18.781Z,6.00
2022-11-29T05:57:54.659Z,6.00
2022-11-29T06:00:23.126Z,6.00
2022-11-29T06:03:00.002Z,6.10
2022-11-29T06:05:37.775Z,6.10
2022-11-29T06:08:11.639Z,6.10
2022-11-29T06:10:41.417Z,6.00
2022-11-29T06:13:22.981Z,6.00
2022-11-29T06:16:36.890Z,6.10
2022-11-29T06:19:34.633Z,6.00
2022-11-29T06:22:20.841Z,6.00
2022-11-29T06:25:06.194Z,6.00
2022-11-29T06:27:53.764Z,5.90
2022-11-29T06:30:24.313Z,5.90
2022-11-29T06:33:01.266Z,5.80
2022-11-29T06:35:40.415Z,5.90
2022-11-29T06:38:18.907Z,5.80
2022-11-29T06:40:48.041Z,5.80
2022-11-29T06:43:16.943Z,5.80
2022-11-29T06:45:50.109Z,5.80
2022-11-29T06:48:24.725Z,5.70
2022-11-29T06:50:58.857Z,5.80
2022-11-29T06:53:38.009Z,5.90
2022-11-29T06:56:14.941Z,5.80
2022-11-29T06:58:50.004Z,5.80
2022-11-29T07:01:28.560Z,5.90
2022-11-29T07:04:09.637Z,5.90
2022-11-29T07:06:37.719Z,6.00
2022-11-29T07:09:14.311Z,6.00
2022-11-29T07:11:43.309Z,6.10
2022-11-29T07:14:11.711Z,6.10
2022-11-29T07:16:47.646Z,6.10
2022-11-29T07:19:25.770Z,6.20
2022-11-29T07:22:05.175Z,6.10
2022-11-29T07:24:48.895Z,6.10
2022-11-29T07:27:21.092Z,6.20
2022-11-29T07:30:05.623Z,6.20
2022-11-29T07:32:48.859Z,6.20
2022-11-29T07:35:25.408Z,6.20
2022-11-29T07:38:02.291Z,6.20
2022-11-29T07:40:38.158Z,6.30
2022-11-29T07:43:18.762Z,6.20
2022-11-29T07:45:47.187Z,6.30
2022-11-29T07:48:17.383Z,6.30
2022-11-29T07:50:48.321Z,6.30
2022-11-29T07:53:18.754Z,6.30
2022-11-29T07:55:48.626Z,6.40
2022-11-29T07:58:18.531Z,6.40
2022-11-29T08:00:46.991Z,6.40
2022-11-29T08:03:15.204Z,6.40
2022-11-29T08:05:47.376Z,6.40
2022-11-29T08:08:15.806Z,6.40
2022-11-29T08:10:46.643Z,6.40
2022-11-29T08:13:16.089Z,6.50
2022-11-29T08:15:48.262Z,6.50
2022-11-29T08:18:16.934Z,6.50
2022-11-29T08:20:46.145Z,6.50
2022-11-29T08:23:14.963Z,6.50
2022-11-29T08:25:43.321Z,6.60
2022-11-29T08:28:11.359Z,6.50
2022-11-29T08:30:40.743Z,6.60
2022-11-29T08:33:09.910Z,6.60
2022-11-29T08:35:39.059Z,6.60
2022-11-29T08:38:07.076Z,6.60
2022-11-29T08:40:35.887Z,6.60
2022-11-29T08:43:03.797Z,6.50
2022-11-29T08:45:31.759Z,6.50
2022-11-29T08:48:01.487Z,6.50
2022-11-29T08:50:29.554Z,6.50
2022-11-29T08:53:17.211Z,6.50
2022-11-29T08:55:46.602Z,6.50
2022-11-29T08:58:16.440Z,6.50
2022-11-29T09:00:46.752Z,6.50
2022-11-29T09:03:33.297Z,6.50
2022-11-29T09:06:12.009Z,6.50
2022-11-29T09:08:40.954Z,6.50
2022-11-29T09:11:13.237Z,6.50
2022-11-29T09:13:41.882Z,6.50
2022-11-29T09:16:11.924Z,6.50
2022-11-29T09:18:45.960Z,6.50
2022-11-29T09:21:17.961Z,6.50
2022-11-29T09:23:47.482Z,6.50
2022-11-29T09:26:19.471Z,6.60
2022-11-29T09:28:47.654Z,6.60
2022-11-29T09:31:16.916Z,6.60
2022-11-29T09:33:46.593Z,6.60
2022-11-29T09:36:14.824Z,6.70
2022-11-29T09:38:42.834Z,6.70
2022-11-29T09:41:35.847Z,6.70
2022-11-29T09:44:13.757Z,6.70
2022-11-29T09:46:52.249Z,6.80
2022-11-29T09:49:41.024Z,6.80
2022-11-29T09:52:18.857Z,6.80
2022-11-29T09:54:56.613Z,6.80
2022-11-29T09:57:26.994Z,6.80
2022-11-29T09:59:59.901Z,6.80
2022-11-29T10:02:34.054Z,6.90
2022-11-29T10:05:07.938Z,6.90
2022-11-29T10:07:42.381Z,6.90
2022-11-29T10:10:16.232Z,6.90
2022-11-29T10:12:49.316Z,7.00
2022-11-29T10:15:22.761Z,7.00
2022-11-29T10:17:55.663Z,7.10
2022-11-29T10:20:26.585Z,7.10
2022-11-29T10:22:58.512Z,7.10
2022-11-29T10:25:30.777Z,7.10
2022-11-29T10:27:59.401Z,7.20
2022-11-29T10:30:27.618Z,7.20
2022-11-29T10:33:00.110Z,7.20
2022-11-29T10:35:29.459Z,7.20
2022-11-29T10:40:59.200Z,7.40
2022-11-29T10:43:27.667Z,7.40
2022-11-29T10:45:57.061Z,7.50
2022-11-29T10:48:28.840Z,7.50
2022-11-29T10:50:56.756Z,7.60
2022-11-29T10:53:27.590Z,7.60
2022-11-29T10:56:02.393Z,7.60
2022-11-29T10:58:31.448Z,7.60
2022-11-29T11:01:01.826Z,7.60
2022-11-29T11:03:35.054Z,7.70
2022-11-29T11:06:14.924Z,7.70
2022-11-29T11:08:48.508Z,7.70
2022-11-29T11:11:24.235Z,7.80
2022-11-29T11:14:00.092Z,7.80
2022-11-29T11:16:37.119Z,7.80
2022-11-29T11:19:30.809Z,7.80
2022-11-29T11:22:00.293Z,7.80
2022-11-29T11:24:33.258Z,7.80
2022-11-29T11:27:02.377Z,7.80
2022-11-29T11:29:37.495Z,7.80
2022-11-29T11:32:08.789Z,7.90
2022-11-29T11:34:38.679Z,7.80
2022-11-29T11:37:23.533Z,7.80
2022-11-29T11:39:55.809Z,7.90
2022-11-29T11:42:39.423Z,7.90
2022-11-29T11:45:30.878Z,7.90
2022-11-29T11:48:00.716Z,7.90
2022-11-29T11:50:33.771Z,7.90
2022-11-29T11:53:05.827Z,7.90
2022-11-29T11:55:38.580Z,7.90
2022-11-29T11:58:19.276Z,7.90
2022-11-29T12:01:06.057Z,7.90
2022-11-29T12:03:49.270Z,7.90
2022-11-29T12:06:32.826Z,8.00
2022-11-29T12:09:05.742Z,7.90
2022-11-29T12:11:42.565Z,7.90
2022-11-29T12:14:19.353Z,7.90
2022-11-29T12:16:49.889Z,7.90
2022-11-29T12:19:22.948Z,7.90
2022-11-29T12:21:56.938Z,7.90
2022-11-29T12:24:29.702Z,7.90
2022-11-29T12:27:05.699Z,8.00
2022-11-29T12:29:35.763Z,8.00
2022-11-29T12:32:19.938Z,8.10
2022-11-29T12:35:01.667Z,8.10
2022-11-29T12:37:36.645Z,8.10
2022-11-29T12:40:15.363Z,8.20
2022-11-29T12:42:53.371Z,8.20
2022-11-29T12:45:35.568Z,8.20
2022-11-29T12:48:14.780Z,8.10
2022-11-29T12:50:53.345Z,8.10
2022-11-29T12:53:39.075Z,8.10
2022-11-29T12:56:16.667Z,8.20
2022-11-29T12:59:02.962Z,8.20
2022-11-29T13:01:41.451Z,8.30
2022-11-29T13:04:20.319Z,8.20
2022-11-29T13:06:56.707Z,8.20
2022-11-29T13:10:01.452Z,8.30
2022-11-29T13:12:36.448Z,8.30
2022-11-29T13:15:10.619Z,8.30
2022-11-29T13:17:42.999Z,8.30
2022-11-29T13:20:25.749Z,8.30
2022-11-29T13:22:59.958Z,8.40
2022-11-29T13:25:33.739Z,8.40
2022-11-29T13:28:05.634Z,8.40
2022-11-29T13:30:36.964Z,8.50
2022-11-29T13:33:13.276Z,8.60
2022-11-29T13:35:47.101Z,8.70
2022-11-29T13:38:24.166Z,8.70
2022-11-29T13:41:00.735Z,8.70
2022-11-29T13:43:39.418Z,8.70
2022-11-29T13:46:20.698Z,8.70
2022-11-29T13:48:50.663Z,8.70
2022-11-29T13:51:33.870Z,8.70
2022-11-29T13:54:04.419Z,8.70
2022-11-29T13:56:42.869Z,8.70
2022-11-29T13:59:19.644Z,8.70
2022-11-29T14:01:51.466Z,8.70
2022-11-29T14:04:34.056Z,8.60
2022-11-29T14:07:08.120Z,8.70
2022-11-29T14:09:43.281Z,8.80
2022-11-29T14:12:36.725Z,8.80
2022-11-29T14:15:17.641Z,8.80
2022-11-29T14:17:59.416Z,8.80
2022-11-29T14:20:55.676Z,8.80
2022-11-29T14:23:39.035Z,8.80
2022-11-29T14:26:31.166Z,8.70
2022-11-29T14:29:00.122Z,8.70
2022-11-29T14:31:54.384Z,8.70
2022-11-29T14:34:48.767Z,8.60
2022-11-29T14:37:35.065Z,8.60
2022-11-29T14:40:14.063Z,8.50
2022-11-29T14:42:49.631Z,8.50
2022-11-29T14:45:27.789Z,8.50
2022-11-29T14:47:56.707Z,8.50
2022-11-29T14:50:37.571Z,8.60
2022-11-29T14:53:06.657Z,8.50
2022-11-29T14:55:37.128Z,8.50
2022-11-29T14:58:16.966Z,8.50
2022-11-29T15:01:06.627Z,8.50
2022-11-29T15:03:47.746Z,8.50
2022-11-29T15:06:25.215Z,8.40
2022-11-29T15:09:02.035Z,8.30
2022-11-29T15:11:48.041Z,8.20
2022-11-29T15:14:24.262Z,8.10
2022-11-29T15:17:03.837Z,8.10
2022-11-29T15:19:58.230Z,8.00
2022-11-29T15:22:30.770Z,7.90
2022-11-29T15:25:03.182Z,7.90
2022-11-29T15:27:35.155Z,7.80
2022-11-29T15:30:20.456Z,7.70
2022-11-29T15:32:48.588Z,7.60
2022-11-29T15:35:20.292Z,7.60
2022-11-29T15:37:50.626Z,7.50
2022-11-29T15:40:20.808Z,7.40
2022-11-29T15:43:01.121Z,7.40
2022-11-29T15:45:32.425Z,7.30
2022-11-29T15:48:20.670Z,7.20
2022-11-29T15:50:57.275Z,7.20
2022-11-29T15:53:31.901Z,7.10
2022-11-29T15:56:04.687Z,7.10
2022-11-29T15:58:34.777Z,7.00
2022-11-29T16:01:05.641Z,7.00
2022-11-29T16:03:36.547Z,6.90
2022-11-29T16:06:16.334Z,7.00
2022-11-29T16:08:45.923Z,6.90
2022-11-29T16:11:20.677Z,6.90
2022-11-29T16:14:28.331Z,6.80
2022-11-29T16:16:58.258Z,6.70
2022-11-29T16:19:31.403Z,6.70
2022-11-29T16:22:04.275Z,6.70
2022-11-29T16:24:35.227Z,6.70
2022-11-29T16:27:03.922Z,6.70
2022-11-29T16:29:38.402Z,6.70
2022-11-29T16:32:28.192Z,6.60
2022-11-29T16:34:57.376Z,6.60
2022-11-29T16:37:27.507Z,6.50
2022-11-29T16:40:01.064Z,6.50
2022-11-29T16:42:30.852Z,6.50
2022-11-29T16:45:06.632Z,6.50
2022-11-29T16:47:52.357Z,6.50
2022-11-29T16:50:21.818Z,6.50
2022-11-29T16:52:56.050Z,6.40
2022-11-29T16:55:25.995Z,6.40
2022-11-29T16:57:54.034Z,6.40
2022-11-29T17:00:32.505Z,6.30
2022-11-29T17:03:00.979Z,6.40
2022-11-29T17:05:29.301Z,6.40
2022-11-29T17:07:57.428Z,6.40
2022-11-29T17:10:27.515Z,6.30
2022-11-29T17:12:55.424Z,6.20
2022-11-29T17:15:23.380Z,6.20
2022-11-29T17:17:51.279Z,6.20
2022-11-29T17:20:19.453Z,6.20
2022-11-29T17:22:47.380Z,6.20
2022-11-29T17:25:15.761Z,6.10
2022-11-29T17:27:45.119Z,6.10
2022-11-29T17:30:14.449Z,6.10
2022-11-29T17:32:44.499Z,6.10
2022-11-29T17:35:12.417Z,6.10
2022-11-29T17:37:40.325Z,6.10
2022-11-29T17:40:09.764Z,6.10
2022-11-29T17:42:37.860Z,6.10
2022-11-29T17:45:08.293Z,6.20
2022-11-29T17:47:36.216Z,6.10
2022-11-29T17:50:04.348Z,6.10
2022-11-29T17:52:32.245Z,6.00
2022-11-29T17:55:00.176Z,6.00
2022-11-29T17:57:28.111Z,6.10
2022-11-29T17:59:56.016Z,6.20
2022-11-29T18:02:25.309Z,6.20
2022-11-29T18:05:51.291Z,6.20
2022-11-29T18:08:02.009Z,6.20
2022-11-29T18:10:30.326Z,6.20
2022-11-29T18:13:00.179Z,6.30
2022-11-29T18:15:28.349Z,6.20
2022-11-29T18:17:57.669Z,6.20
2022-11-29T18:20:27.546Z,6.20
2022-11-29T18:22:56.191Z,6.20
2022-11-29T18:25:38.875Z,6.20
2022-11-29T18:28:11.212Z,6.20
2022-11-29T18:30:42.327Z,6.10
2022-11-29T18:33:11.794Z,6.10
2022-11-29T18:35:39.637Z,6.10
2022-11-29T18:38:15.225Z,6.10
2022-11-29T18:40:48.509Z,6.10
2022-11-29T18:43:17.791Z,6.20
2022-11-29T18:45:46.419Z,6.10
2022-11-29T18:48:15.749Z,6.10
2022-11-29T18:50:43.698Z,6.20
2022-11-29T18:53:11.575Z,6.10
2022-11-29T18:55:44.124Z,6.00
2022-11-29T18:58:12.026Z,6.00
2022-11-29T19:00:40.805Z,5.90
2022-11-29T19:03:08.889Z,5.90
2022-11-29T19:05:38.156Z,5.90
2022-11-29T19:08:06.481Z,5.90
2022-11-29T19:10:34.401Z,5.90
2022-11-29T19:13:02.361Z,5.90
2022-11-29T19:15:30.289Z,5.90
2022-11-29T19:17:58.233Z,5.90
2022-11-29T19:20:26.145Z,5.90
2022-11-29T19:23:00.289Z,5.90
2022-11-29T19:25:30.233Z,5.90
2022-11-29T19:27:58.150Z,5.80
2022-11-29T19:30:26.110Z,5.80
2022-11-29T19:32:54.088Z,5.90
2022-11-29T19:35:22.054Z,5.80
2022-11-29T19:37:50.099Z,5.80
2022-11-29T19:40:19.963Z,5.80
2022-11-29T19:42:48.719Z,5.90
2022-11-29T19:45:18.038Z,5.90
2022-11-29T19:47:46.421Z,5.90
2022-11-29T19:50:14.382Z,5.90
2022-11-29T19:52:42.763Z,5.80
2022-11-29T19:55:10.899Z,5.80
2022-11-29T19:57:40.255Z,5.90
2022-11-29T20:00:11.085Z,6.00
2022-11-29T20:02:39.049Z,5.90
2022-11-29T20:05:08.234Z,5.90
2022-11-29T20:07:36.414Z,5.90
2022-11-29T20:10:08.101Z,5.80
2022-11-29T20:12:39.601Z,5.90
2022-11-29T20:15:09.191Z,5.90
2022-11-29T20:17:37.129Z,5.80
2022-11-29T20:20:05.762Z,5.80
2022-11-29T20:22:33.770Z,5.80
2022-11-29T20:25:01.780Z,5.80
2022-11-29T20:27:29.812Z,5.80
2022-11-29T20:29:59.193Z,5.70
2022-11-29T20:32:27.521Z,5.70
2022-11-29T20:34:56.043Z,5.70
2022-11-29T20:37:36.023Z,5.70
2022-11-29T20:40:07.583Z,5.80
2022-11-29T20:43:02.704Z,5.70
2022-11-29T20:45:32.772Z,5.70
2022-11-29T20:48:09.242Z,5.70
2022-11-29T20:50:37.744Z,5.70
2022-11-29T20:53:19.978Z,5.70
2022-11-29T20:55:49.544Z,5.70
2022-11-29T20:58:19.400Z,5.60
2022-11-29T21:00:48.870Z,5.60
2022-11-29T21:03:17.874Z,5.70
2022-11-29T21:05:46.798Z,5.60
2022-11-29T21:08:15.494Z,5.60
2022-11-29T21:10:43.898Z,5.60
2022-11-29T21:13:16.100Z,5.60
2022-11-29T21:15:44.698Z,5.60
2022-11-29T21:18:23.723Z,5.60
2022-11-29T21:21:01.902Z,5.60
2022-11-29T21:23:39.119Z,5.60
2022-11-29T21:26:11.929Z,5.60
2022-11-29T21:28:47.754Z,5.60
2022-11-29T21:31:20.335Z,5.60
2022-11-29T21:33:51.044Z,5.70
2022-11-29T21:36:19.074Z,5.80
2022-11-29T21:38:53.917Z,5.80
2022-11-29T21:41:24.277Z,5.80
2022-11-29T21:44:06.523Z,5.80
2022-11-29T21:46:39.588Z,5.90
2022-11-29T21:49:09.154Z,5.90
2022-11-29T21:51:37.607Z,6.00
2022-11-29T21:54:06.030Z,6.00
2022-11-29T21:56:34.352Z,6.00
2022-11-29T21:59:02.358Z,6.00
2022-11-29T22:01:30.484Z,6.00
2022-11-29T22:03:58.648Z,6.00
2022-11-29T22:06:31.658Z,5.90
2022-11-29T22:09:00.057Z,5.90
2022-11-29T22:11:34.587Z,6.00
2022-11-29T22:14:16.914Z,6.00
2022-11-29T22:16:48.137Z,6.00
2022-11-29T22:19:17.781Z,6.00
2022-11-29T22:21:50.060Z,6.10
2022-11-29T22:24:20.720Z,6.10
2022-11-29T22:26:50.001Z,6.10
2022-11-29T22:29:30.940Z,6.10
2022-11-29T22:32:05.908Z,6.00
2022-11-29T22:34:34.156Z,6.10
2022-11-29T22:37:03.402Z,6.10
2022-11-29T22:39:31.520Z,6.10
2022-11-29T22:41:59.458Z,6.10
2022-11-29T22:44:27.433Z,6.10
2022-11-29T22:46:55.514Z,6.10
2022-11-29T22:49:23.552Z,6.10
2022-11-29T22:51:52.277Z,6.10
2022-11-29T22:54:21.819Z,6.10
2022-11-29T22:56:49.867Z,6.00
2022-11-29T22:59:21.394Z,6.00
2022-11-29T23:01:49.378Z,6.00
2022-11-29T23:04:17.358Z,6.00
2022-11-29T23:06:46.817Z,6.00
2022-11-29T23:09:16.880Z,6.00
2022-11-29T23:12:00.110Z,6.10
2022-11-29T23:14:37.061Z,6.10
2022-11-29T23:17:05.000Z,6.10
2022-11-29T23:19:32.937Z,6.20
2022-11-29T23:22:00.854Z,6.20
2022-11-29T23:24:28.726Z,6.20
2022-11-29T23:26:58.029Z,6.30
2022-11-29T23:29:25.901Z,6.30
2022-11-29T23:31:53.890Z,6.30
2022-11-29T23:34:22.573Z,6.30
2022-11-29T23:36:53.131Z,6.30
2022-11-29T23:39:21.782Z,6.30
2022-11-29T23:41:49.754Z,6.30
2022-11-29T23:44:18.985Z,6.30
2022-11-29T23:46:46.929Z,6.30
2022-11-29T23:49:14.796Z,6.30
2022-11-29T23:51:42.719Z,6.30
2022-11-29T23:54:10.712Z,6.30
2022-11-29T23:56:38.602Z,6.30
2022-11-29T23:59:06.960Z,6.20
